Language selection

Weather shortcuts

Southeastern Grand Banks: Past 24 Hour Conditions

 

West Chedabucto Bay - 44489

08:00 AM AST 03 March 2024Buoy position: 45.49N 61.14W
Disclaimer

This table is a summary of hourly weather conditions for the past 24 hours.
Please note that these observations might not always be representative of weather conditions over their associated marine area.

Date / Time
(AST)
Wind(knots) Wave height(m) Wave period(s) Pressure(kPa) Air tempC) Water tempC)
03 March 2024
8:00 S 7 gusts 9 0.13 3.1 103.1 3 1
7:00 S 6 gusts 7 0.19 2.6 103.2 3 1
6:00 SW 3 gusts 5 0.21 2.7 103.2 3 1
5:00 SSW 2 gusts 2 0.24 3.0 103.2 3 1
4:00 SW 3 gusts 4 0.19 2.3 103.2 3 1
3:00 SSW 3 gusts 5 0.25 2.5 103.2 3 1
2:00 WSW 3 gusts 4 0.42 2.8 103.3 3 1
1:00 S 3 gusts 4 0.43 2.9 103.3 2 1
0:00 WSW 12 gusts 14 0.48 2.9 103.3 2 1
02 March 2024
23:00 W 17 gusts 20 0.53 2.8 103.2 3 1
22:00 WSW 19 gusts 22 0.59 2.9 103.2 2 1
21:00 WSW 20 gusts 25 0.68 3.1 103.2 2 1
20:00 WSW 17 gusts 21 0.66 3.1 103.3 2 1
19:00 WSW 23 gusts 26 0.72 3.2 103.2 2 1
18:00 WSW 19 gusts 22 0.67 3.2 103.3 2 1
17:00 WSW 19 gusts 22 0.62 3.0 103.2 3 1
16:00 WSW 19 gusts 23 0.59 2.8 103.2 3 1
15:00 SW 12 gusts 15 0.36 2.6 103.3 3 1
14:00 WSW 11 gusts 13 0.32 2.4 103.3 2 1
13:00 SW 12 gusts 15 0.05 2.7 103.4 1 1
12:00 S 5 gusts 8 0.07 2.3 103.5 -1 1
11:00 SW 6 gusts 7 0.16 2.8 103.5 -2 1
10:00 WNW 6 gusts 9 0.18 2.5 103.6 -4 1
9:00 WNW 12 gusts 13 0.26 2.3 103.6 -5 1
8:00 NW 12 gusts 15 0.36 2.4 103.5 -5 1

Zoom-in to make a selection

Map of Atlantic - Newfoundland marine weather areas Banquereau - 44139 East Chedabucto Bay – 44488 West Chedabucto Bay – 44489 Blanc-Sablon Airport Cap Whittle Chevery Natashquan Airport Heath Point Îles de la Madeleine Airport Miscou Island Eskasoni (First Nations) Grand Étang Ingonish Beach North Mountain St.Paul Island J.A. Douglas McCurdy Sydney Airport Charlottetown Airport East Point North Cape Argentia Berry Hill Bonavista Burgeo Cape Race Corner Brook Daniel's Harbour Englee Ferolle Point La Scie Port aux Basques Sagona Island St. Anthony Airport St. John's Int'l Airport St. Lawrence Stephenville Airport Twillingate Winterland Branch Hill Wreckhouse Grates Cove Pool's Island Marticot Island Long Pond Cartwright Airport Mary's Harbour
Legend:
buoy Buoy
land station Land Station

Atlantic - Newfoundland Area

Another Region

Date modified: